sensor_id;sensor_type;location;lat;lon;timestamp;temperature;humidity
26342;DHT22;14054;50.108;8.640;2023-02-01T00:00:31;5.60;99.90
26342;DHT22;14054;50.108;8.640;2023-02-01T00:02:58;5.70;99.90
26342;DHT22;14054;50.108;8.640;2023-02-01T00:05:24;5.70;99.90
26342;DHT22;14054;50.108;8.640;2023-02-01T00:07:49;5.70;99.90
26342;DHT22;14054;50.108;8.640;2023-02-01T00:10:15;5.70;99.90
26342;DHT22;14054;50.108;8.640;2023-02-01T00:12:40;5.70;99.90
26342;DHT22;14054;50.108;8.640;2023-02-01T00:15:06;5.70;99.90
26342;DHT22;14054;50.108;8.640;2023-02-01T00:17:32;5.70;99.90
26342;DHT22;14054;50.108;8.640;2023-02-01T00:19:57;5.70;99.90
26342;DHT22;14054;50.108;8.640;2023-02-01T00:22:23;5.70;99.90
26342;DHT22;14054;50.108;8.640;2023-02-01T00:24:48;5.80;99.90
26342;DHT22;14054;50.108;8.640;2023-02-01T00:27:14;5.80;99.90
26342;DHT22;14054;50.108;8.640;2023-02-01T00:29:43;5.80;99.90
26342;DHT22;14054;50.108;8.640;2023-02-01T00:32:10;5.80;99.90
26342;DHT22;14054;50.108;8.640;2023-02-01T00:34:35;5.80;99.90
26342;DHT22;14054;50.108;8.640;2023-02-01T00:37:01;5.80;99.90
26342;DHT22;14054;50.108;8.640;2023-02-01T00:39:26;5.80;99.90
26342;DHT22;14054;50.108;8.640;2023-02-01T00:41:52;5.80;99.90
26342;DHT22;14054;50.108;8.640;2023-02-01T00:44:17;5.80;99.90
26342;DHT22;14054;50.108;8.640;2023-02-01T00:46:43;5.80;99.90
26342;DHT22;14054;50.108;8.640;2023-02-01T00:49:09;5.80;99.90
26342;DHT22;14054;50.108;8.640;2023-02-01T00:51:34;5.70;99.90
26342;DHT22;14054;50.108;8.640;2023-02-01T00:54:00;5.70;99.90
26342;DHT22;14054;50.108;8.640;2023-02-01T00:56:26;5.70;99.90
26342;DHT22;14054;50.108;8.640;2023-02-01T00:58:55;5.70;99.90
26342;DHT22;14054;50.108;8.640;2023-02-01T01:01:22;5.70;99.90
26342;DHT22;14054;50.108;8.640;2023-02-01T01:03:51;5.70;99.90
26342;DHT22;14054;50.108;8.640;2023-02-01T01:06:20;5.80;99.90
26342;DHT22;14054;50.108;8.640;2023-02-01T01:08:46;5.70;99.90
26342;DHT22;14054;50.108;8.640;2023-02-01T01:11:17;5.80;99.90
26342;DHT22;14054;50.108;8.640;2023-02-01T01:13:46;5.80;99.90
26342;DHT22;14054;50.108;8.640;2023-02-01T01:16:11;5.80;99.90
26342;DHT22;14054;50.108;8.640;2023-02-01T01:18:37;5.80;99.90
26342;DHT22;14054;50.108;8.640;2023-02-01T01:21:07;5.80;99.90
26342;DHT22;14054;50.108;8.640;2023-02-01T01:23:33;5.80;99.90
26342;DHT22;14054;50.108;8.640;2023-02-01T01:25:59;5.80;99.90
26342;DHT22;14054;50.108;8.640;2023-02-01T01:28:24;5.80;99.90
26342;DHT22;14054;50.108;8.640;2023-02-01T01:30:50;5.80;99.90
26342;DHT22;14054;50.108;8.640;2023-02-01T01:33:15;5.80;99.90
26342;DHT22;14054;50.108;8.640;2023-02-01T01:35:41;5.80;99.90
26342;DHT22;14054;50.108;8.640;2023-02-01T01:38:08;5.90;99.90
26342;DHT22;14054;50.108;8.640;2023-02-01T01:40:34;5.80;99.90
26342;DHT22;14054;50.108;8.640;2023-02-01T01:43:00;5.90;99.90
26342;DHT22;14054;50.108;8.640;2023-02-01T01:45:28;5.80;99.90
26342;DHT22;14054;50.108;8.640;2023-02-01T01:47:57;5.80;99.90
26342;DHT22;14054;50.108;8.640;2023-02-01T01:50:47;5.80;99.90
26342;DHT22;14054;50.108;8.640;2023-02-01T01:53:16;5.80;99.90
26342;DHT22;14054;50.108;8.640;2023-02-01T01:55:44;5.80;99.90
26342;DHT22;14054;50.108;8.640;2023-02-01T01:58:16;5.80;99.90
26342;DHT22;14054;50.108;8.640;2023-02-01T02:00:43;5.80;99.90
26342;DHT22;14054;50.108;8.640;2023-02-01T02:03:15;5.80;99.90
26342;DHT22;14054;50.108;8.640;2023-02-01T02:05:41;5.80;99.90
26342;DHT22;14054;50.108;8.640;2023-02-01T02:08:07;5.80;99.90
26342;DHT22;14054;50.108;8.640;2023-02-01T02:10:33;5.80;99.90
26342;DHT22;14054;50.108;8.640;2023-02-01T02:13:17;5.80;99.90
26342;DHT22;14054;50.108;8.640;2023-02-01T02:16:05;5.80;99.90
26342;DHT22;14054;50.108;8.640;2023-02-01T02:27:32;5.70;99.90
26342;DHT22;14054;50.108;8.640;2023-02-01T02:39:03;5.70;99.90
26342;DHT22;14054;50.108;8.640;2023-02-01T02:41:35;5.70;99.90
26342;DHT22;14054;50.108;8.640;2023-02-01T02:44:59;5.70;99.90
26342;DHT22;14054;50.108;8.640;2023-02-01T02:48:13;5.70;99.90
26342;DHT22;14054;50.108;8.640;2023-02-01T02:50:41;5.70;99.90
26342;DHT22;14054;50.108;8.640;2023-02-01T02:53:39;5.70;99.90
26342;DHT22;14054;50.108;8.640;2023-02-01T02:56:28;5.70;99.90
26342;DHT22;14054;50.108;8.640;2023-02-01T02:59:17;5.70;99.90
26342;DHT22;14054;50.108;8.640;2023-02-01T03:02:03;5.70;99.90
26342;DHT22;14054;50.108;8.640;2023-02-01T03:04:52;5.80;99.90
26342;DHT22;14054;50.108;8.640;2023-02-01T03:10:17;5.80;99.90
26342;DHT22;14054;50.108;8.640;2023-02-01T03:12:45;5.70;99.90
26342;DHT22;14054;50.108;8.640;2023-02-01T03:15:38;5.70;99.90
26342;DHT22;14054;50.108;8.640;2023-02-01T03:18:11;5.70;99.90
26342;DHT22;14054;50.108;8.640;2023-02-01T03:20:40;5.80;99.90
26342;DHT22;14054;50.108;8.640;2023-02-01T03:23:11;5.90;99.90
26342;DHT22;14054;50.108;8.640;2023-02-01T03:25:39;5.70;99.90
26342;DHT22;14054;50.108;8.640;2023-02-01T03:28:10;5.70;99.90
26342;DHT22;14054;50.108;8.640;2023-02-01T03:30:38;5.70;99.90
26342;DHT22;14054;50.108;8.640;2023-02-01T03:33:13;5.70;99.90
26342;DHT22;14054;50.108;8.640;2023-02-01T03:36:15;5.70;99.90
26342;DHT22;14054;50.108;8.640;2023-02-01T03:41:17;5.70;99.90
26342;DHT22;14054;50.108;8.640;2023-02-01T03:43:56;5.70;99.90
26342;DHT22;14054;50.108;8.640;2023-02-01T03:46:36;5.70;99.90
26342;DHT22;14054;50.108;8.640;2023-02-01T03:49:06;5.70;99.90
26342;DHT22;14054;50.108;8.640;2023-02-01T03:51:33;5.70;99.90
26342;DHT22;14054;50.108;8.640;2023-02-01T03:54:01;5.70;99.90
26342;DHT22;14054;50.108;8.640;2023-02-01T03:56:29;5.70;99.90
26342;DHT22;14054;50.108;8.640;2023-02-01T03:58:55;5.70;99.90
26342;DHT22;14054;50.108;8.640;2023-02-01T04:01:25;5.80;99.90
26342;DHT22;14054;50.108;8.640;2023-02-01T04:03:51;5.80;99.90
26342;DHT22;14054;50.108;8.640;2023-02-01T04:06:17;5.70;99.90
26342;DHT22;14054;50.108;8.640;2023-02-01T04:08:42;5.80;99.90
26342;DHT22;14054;50.108;8.640;2023-02-01T04:11:08;5.80;99.90
26342;DHT22;14054;50.108;8.640;2023-02-01T04:13:33;5.80;99.90
26342;DHT22;14054;50.108;8.640;2023-02-01T04:15:59;5.80;99.90
26342;DHT22;14054;50.108;8.640;2023-02-01T04:18:24;5.80;99.90
26342;DHT22;14054;50.108;8.640;2023-02-01T04:20:50;5.80;99.90
26342;DHT22;14054;50.108;8.640;2023-02-01T04:23:15;5.80;99.90
26342;DHT22;14054;50.108;8.640;2023-02-01T04:25:41;5.80;99.90
26342;DHT22;14054;50.108;8.640;2023-02-01T04:28:06;5.80;99.90
26342;DHT22;14054;50.108;8.640;2023-02-01T04:30:32;5.80;99.90
26342;DHT22;14054;50.108;8.640;2023-02-01T04:32:58;5.80;99.90
26342;DHT22;14054;50.108;8.640;2023-02-01T04:35:23;5.80;99.90
26342;DHT22;14054;50.108;8.640;2023-02-01T04:37:48;5.80;99.90
26342;DHT22;14054;50.108;8.640;2023-02-01T04:40:14;5.80;99.90
26342;DHT22;14054;50.108;8.640;2023-02-01T04:42:40;5.80;99.90
26342;DHT22;14054;50.108;8.640;2023-02-01T04:45:06;5.80;99.90
26342;DHT22;14054;50.108;8.640;2023-02-01T04:47:32;5.80;99.90
26342;DHT22;14054;50.108;8.640;2023-02-01T04:49:57;5.80;99.90
26342;DHT22;14054;50.108;8.640;2023-02-01T04:52:23;5.80;99.90
26342;DHT22;14054;50.108;8.640;2023-02-01T04:54:48;5.80;99.90
26342;DHT22;14054;50.108;8.640;2023-02-01T04:57:14;5.80;99.90
26342;DHT22;14054;50.108;8.640;2023-02-01T04:59:40;5.70;99.90
26342;DHT22;14054;50.108;8.640;2023-02-01T05:02:05;5.70;99.90
26342;DHT22;14054;50.108;8.640;2023-02-01T05:04:31;5.70;99.90
26342;DHT22;14054;50.108;8.640;2023-02-01T05:06:56;5.70;99.90
26342;DHT22;14054;50.108;8.640;2023-02-01T05:09:22;5.70;99.90
26342;DHT22;14054;50.108;8.640;2023-02-01T05:11:47;5.70;99.90
26342;DHT22;14054;50.108;8.640;2023-02-01T05:14:31;5.70;99.90
26342;DHT22;14054;50.108;8.640;2023-02-01T05:16:57;5.70;99.90
26342;DHT22;14054;50.108;8.640;2023-02-01T05:19:22;5.70;99.90
26342;DHT22;14054;50.108;8.640;2023-02-01T05:21:48;5.60;99.90
26342;DHT22;14054;50.108;8.640;2023-02-01T05:24:13;5.70;99.90
26342;DHT22;14054;50.108;8.640;2023-02-01T05:26:42;5.70;99.90
26342;DHT22;14054;50.108;8.640;2023-02-01T05:29:08;5.70;99.90
26342;DHT22;14054;50.108;8.640;2023-02-01T05:31:34;5.70;99.90
26342;DHT22;14054;50.108;8.640;2023-02-01T05:34:00;5.70;99.90
26342;DHT22;14054;50.108;8.640;2023-02-01T05:36:25;5.70;99.90
26342;DHT22;14054;50.108;8.640;2023-02-01T05:38:51;5.70;99.90
26342;DHT22;14054;50.108;8.640;2023-02-01T05:41:16;5.70;99.90
26342;DHT22;14054;50.108;8.640;2023-02-01T05:43:41;5.80;99.90
26342;DHT22;14054;50.108;8.640;2023-02-01T05:46:07;5.80;99.90
26342;DHT22;14054;50.108;8.640;2023-02-01T05:48:35;5.80;99.90
26342;DHT22;14054;50.108;8.640;2023-02-01T05:51:01;5.80;99.90
26342;DHT22;14054;50.108;8.640;2023-02-01T05:53:26;5.80;99.90
26342;DHT22;14054;50.108;8.640;2023-02-01T05:55:52;5.80;99.90
26342;DHT22;14054;50.108;8.640;2023-02-01T05:58:17;5.80;99.90
26342;DHT22;14054;50.108;8.640;2023-02-01T06:00:43;5.70;99.90
26342;DHT22;14054;50.108;8.640;2023-02-01T06:03:08;5.60;99.90
26342;DHT22;14054;50.108;8.640;2023-02-01T06:05:34;5.60;99.90
26342;DHT22;14054;50.108;8.640;2023-02-01T06:07:59;5.60;99.90
26342;DHT22;14054;50.108;8.640;2023-02-01T06:10:25;5.60;99.90
26342;DHT22;14054;50.108;8.640;2023-02-01T06:12:50;5.50;99.90
26342;DHT22;14054;50.108;8.640;2023-02-01T06:15:16;5.50;99.90
26342;DHT22;14054;50.108;8.640;2023-02-01T06:17:43;5.50;99.90
26342;DHT22;14054;50.108;8.640;2023-02-01T06:20:10;5.60;99.90
26342;DHT22;14054;50.108;8.640;2023-02-01T06:22:36;5.60;99.90
26342;DHT22;14054;50.108;8.640;2023-02-01T06:25:03;5.60;99.90
26342;DHT22;14054;50.108;8.640;2023-02-01T06:27:29;5.60;99.90
26342;DHT22;14054;50.108;8.640;2023-02-01T06:29:55;5.60;99.90
26342;DHT22;14054;50.108;8.640;2023-02-01T06:32:20;5.60;99.90
26342;DHT22;14054;50.108;8.640;2023-02-01T06:34:46;5.60;99.90
26342;DHT22;14054;50.108;8.640;2023-02-01T06:37:12;5.50;99.90
26342;DHT22;14054;50.108;8.640;2023-02-01T06:39:37;5.50;99.90
26342;DHT22;14054;50.108;8.640;2023-02-01T06:42:03;5.40;99.90
26342;DHT22;14054;50.108;8.640;2023-02-01T06:44:29;5.30;99.90
26342;DHT22;14054;50.108;8.640;2023-02-01T06:46:55;5.30;99.90
26342;DHT22;14054;50.108;8.640;2023-02-01T06:49:21;5.20;99.90
26342;DHT22;14054;50.108;8.640;2023-02-01T06:51:46;5.20;99.90
26342;DHT22;14054;50.108;8.640;2023-02-01T06:54:12;5.20;99.90
26342;DHT22;14054;50.108;8.640;2023-02-01T06:56:38;5.20;99.90
26342;DHT22;14054;50.108;8.640;2023-02-01T06:59:05;5.20;99.90
26342;DHT22;14054;50.108;8.640;2023-02-01T07:01:31;5.20;99.90
26342;DHT22;14054;50.108;8.640;2023-02-01T07:03:56;5.20;99.90
26342;DHT22;14054;50.108;8.640;2023-02-01T07:06:22;5.30;99.90
26342;DHT22;14054;50.108;8.640;2023-02-01T07:08:48;5.30;99.90
26342;DHT22;14054;50.108;8.640;2023-02-01T07:11:15;5.30;99.90
26342;DHT22;14054;50.108;8.640;2023-02-01T07:13:40;5.30;99.90
26342;DHT22;14054;50.108;8.640;2023-02-01T07:16:09;5.40;99.90
26342;DHT22;14054;50.108;8.640;2023-02-01T07:18:35;5.40;99.90
26342;DHT22;14054;50.108;8.640;2023-02-01T07:21:00;5.50;99.90
26342;DHT22;14054;50.108;8.640;2023-02-01T07:23:26;5.70;99.90
26342;DHT22;14054;50.108;8.640;2023-02-01T07:25:57;5.70;99.90
26342;DHT22;14054;50.108;8.640;2023-02-01T07:28:24;5.80;99.90
26342;DHT22;14054;50.108;8.640;2023-02-01T07:30:50;5.90;99.90
26342;DHT22;14054;50.108;8.640;2023-02-01T07:33:19;6.00;99.90
26342;DHT22;14054;50.108;8.640;2023-02-01T07:35:46;6.10;99.90
26342;DHT22;14054;50.108;8.640;2023-02-01T07:38:11;6.10;99.90
26342;DHT22;14054;50.108;8.640;2023-02-01T07:40:37;6.10;99.90
26342;DHT22;14054;50.108;8.640;2023-02-01T07:43:02;6.10;99.90
26342;DHT22;14054;50.108;8.640;2023-02-01T07:45:28;6.00;99.90
26342;DHT22;14054;50.108;8.640;2023-02-01T07:47:58;6.00;99.90
26342;DHT22;14054;50.108;8.640;2023-02-01T07:50:24;6.00;99.90
26342;DHT22;14054;50.108;8.640;2023-02-01T07:52:49;6.10;99.90
26342;DHT22;14054;50.108;8.640;2023-02-01T07:55:15;6.20;99.90
26342;DHT22;14054;50.108;8.640;2023-02-01T07:57:40;6.20;99.90
26342;DHT22;14054;50.108;8.640;2023-02-01T08:00:07;6.20;99.90
26342;DHT22;14054;50.108;8.640;2023-02-01T08:02:51;6.20;99.90
26342;DHT22;14054;50.108;8.640;2023-02-01T08:05:17;6.20;99.90
26342;DHT22;14054;50.108;8.640;2023-02-01T08:07:42;6.20;99.90
26342;DHT22;14054;50.108;8.640;2023-02-01T08:10:08;6.30;99.90
26342;DHT22;14054;50.108;8.640;2023-02-01T08:12:36;6.30;99.90
26342;DHT22;14054;50.108;8.640;2023-02-01T08:15:03;6.30;99.90
26342;DHT22;14054;50.108;8.640;2023-02-01T08:17:29;6.30;99.90
26342;DHT22;14054;50.108;8.640;2023-02-01T08:19:54;6.30;99.90
26342;DHT22;14054;50.108;8.640;2023-02-01T08:22:20;6.40;99.90
26342;DHT22;14054;50.108;8.640;2023-02-01T08:24:48;6.40;99.90
26342;DHT22;14054;50.108;8.640;2023-02-01T08:27:13;6.40;99.90
26342;DHT22;14054;50.108;8.640;2023-02-01T08:29:39;6.40;99.90
26342;DHT22;14054;50.108;8.640;2023-02-01T08:32:05;6.40;99.90
26342;DHT22;14054;50.108;8.640;2023-02-01T08:34:32;6.40;99.90
26342;DHT22;14054;50.108;8.640;2023-02-01T08:36:57;6.40;99.90
26342;DHT22;14054;50.108;8.640;2023-02-01T08:39:24;6.40;99.90
26342;DHT22;14054;50.108;8.640;2023-02-01T08:41:50;6.40;99.90
26342;DHT22;14054;50.108;8.640;2023-02-01T08:44:35;6.40;99.90
26342;DHT22;14054;50.108;8.640;2023-02-01T08:47:02;6.40;99.90
26342;DHT22;14054;50.108;8.640;2023-02-01T08:49:28;6.50;99.90
26342;DHT22;14054;50.108;8.640;2023-02-01T08:51:54;6.50;99.90
26342;DHT22;14054;50.108;8.640;2023-02-01T08:54:20;6.50;99.90
26342;DHT22;14054;50.108;8.640;2023-02-01T08:56:46;6.50;99.90
26342;DHT22;14054;50.108;8.640;2023-02-01T08:59:12;6.50;99.90
26342;DHT22;14054;50.108;8.640;2023-02-01T09:01:37;6.60;99.90
26342;DHT22;14054;50.108;8.640;2023-02-01T09:04:02;6.60;99.90
26342;DHT22;14054;50.108;8.640;2023-02-01T09:06:28;6.60;99.90
26342;DHT22;14054;50.108;8.640;2023-02-01T09:08:53;6.60;99.90
26342;DHT22;14054;50.108;8.640;2023-02-01T09:11:19;6.70;99.90
26342;DHT22;14054;50.108;8.640;2023-02-01T09:13:45;6.70;99.90
26342;DHT22;14054;50.108;8.640;2023-02-01T09:16:11;6.70;99.90
26342;DHT22;14054;50.108;8.640;2023-02-01T09:18:36;6.70;99.90
26342;DHT22;14054;50.108;8.640;2023-02-01T09:21:06;6.70;99.90
26342;DHT22;14054;50.108;8.640;2023-02-01T09:23:32;6.70;99.90
26342;DHT22;14054;50.108;8.640;2023-02-01T09:26:04;6.70;99.90
26342;DHT22;14054;50.108;8.640;2023-02-01T09:28:32;6.80;99.90
26342;DHT22;14054;50.108;8.640;2023-02-01T09:30:58;6.80;99.90
26342;DHT22;14054;50.108;8.640;2023-02-01T09:33:25;6.90;99.90
26342;DHT22;14054;50.108;8.640;2023-02-01T09:35:58;6.90;99.90
26342;DHT22;14054;50.108;8.640;2023-02-01T09:38:24;6.90;99.90
26342;DHT22;14054;50.108;8.640;2023-02-01T09:40:51;6.90;99.90
26342;DHT22;14054;50.108;8.640;2023-02-01T09:43:25;7.00;99.90
26342;DHT22;14054;50.108;8.640;2023-02-01T09:48:48;7.00;99.90
26342;DHT22;14054;50.108;8.640;2023-02-01T09:51:18;7.00;99.90
26342;DHT22;14054;50.108;8.640;2023-02-01T09:53:51;7.00;99.90
26342;DHT22;14054;50.108;8.640;2023-02-01T09:56:23;7.00;99.90
26342;DHT22;14054;50.108;8.640;2023-02-01T09:58:55;7.00;99.90
26342;DHT22;14054;50.108;8.640;2023-02-01T10:01:24;7.10;99.90
26342;DHT22;14054;50.108;8.640;2023-02-01T10:03:57;7.10;99.90
26342;DHT22;14054;50.108;8.640;2023-02-01T10:12:31;7.10;99.90
26342;DHT22;14054;50.108;8.640;2023-02-01T10:20:52;7.20;99.90
26342;DHT22;14054;50.108;8.640;2023-02-01T10:23:50;7.20;99.90
26342;DHT22;14054;50.108;8.640;2023-02-01T10:26:29;7.40;99.90
26342;DHT22;14054;50.108;8.640;2023-02-01T10:29:02;7.40;99.90
26342;DHT22;14054;50.108;8.640;2023-02-01T10:31:31;7.50;99.90
26342;DHT22;14054;50.108;8.640;2023-02-01T10:34:01;7.40;99.90
26342;DHT22;14054;50.108;8.640;2023-02-01T10:36:39;7.40;99.90
26342;DHT22;14054;50.108;8.640;2023-02-01T10:39:06;7.40;99.90
26342;DHT22;14054;50.108;8.640;2023-02-01T10:41:35;7.40;99.90
26342;DHT22;14054;50.108;8.640;2023-02-01T10:44:03;7.30;99.90
26342;DHT22;14054;50.108;8.640;2023-02-01T10:46:31;7.30;99.90
26342;DHT22;14054;50.108;8.640;2023-02-01T10:48:58;7.30;99.90
26342;DHT22;14054;50.108;8.640;2023-02-01T10:54:21;7.20;99.90
26342;DHT22;14054;50.108;8.640;2023-02-01T10:56:48;7.20;99.90
26342;DHT22;14054;50.108;8.640;2023-02-01T10:59:24;7.20;99.90
26342;DHT22;14054;50.108;8.640;2023-02-01T11:02:00;7.20;99.90
26342;DHT22;14054;50.108;8.640;2023-02-01T11:04:32;7.20;99.90
26342;DHT22;14054;50.108;8.640;2023-02-01T11:07:19;7.20;99.90
26342;DHT22;14054;50.108;8.640;2023-02-01T11:09:50;7.20;99.90
26342;DHT22;14054;50.108;8.640;2023-02-01T11:12:30;7.20;99.90
26342;DHT22;14054;50.108;8.640;2023-02-01T11:15:18;7.20;99.90
26342;DHT22;14054;50.108;8.640;2023-02-01T11:17:46;7.20;99.90
26342;DHT22;14054;50.108;8.640;2023-02-01T11:20:16;7.20;99.90
26342;DHT22;14054;50.108;8.640;2023-02-01T11:22:47;7.20;99.90
26342;DHT22;14054;50.108;8.640;2023-02-01T11:25:15;7.20;99.90
26342;DHT22;14054;50.108;8.640;2023-02-01T11:27:40;7.20;99.90
26342;DHT22;14054;50.108;8.640;2023-02-01T11:30:07;7.20;99.90
26342;DHT22;14054;50.108;8.640;2023-02-01T11:32:33;7.20;99.90
26342;DHT22;14054;50.108;8.640;2023-02-01T11:35:02;7.20;99.90
26342;DHT22;14054;50.108;8.640;2023-02-01T11:37:36;7.30;99.90
26342;DHT22;14054;50.108;8.640;2023-02-01T11:40:23;7.30;99.90
26342;DHT22;14054;50.108;8.640;2023-02-01T11:42:59;7.30;99.90
26342;DHT22;14054;50.108;8.640;2023-02-01T11:45:28;7.40;99.90
26342;DHT22;14054;50.108;8.640;2023-02-01T11:47:55;7.40;99.90
26342;DHT22;14054;50.108;8.640;2023-02-01T11:50:41;7.30;99.90
26342;DHT22;14054;50.108;8.640;2023-02-01T11:53:23;7.40;99.90
26342;DHT22;14054;50.108;8.640;2023-02-01T12:07:17;7.50;99.90
26342;DHT22;14054;50.108;8.640;2023-02-01T12:13:14;7.60;99.90
26342;DHT22;14054;50.108;8.640;2023-02-01T12:16:02;7.60;99.90
26342;DHT22;14054;50.108;8.640;2023-02-01T12:27:45;7.70;99.90
26342;DHT22;14054;50.108;8.640;2023-02-01T12:30:27;7.60;99.90
26342;DHT22;14054;50.108;8.640;2023-02-01T12:38:36;7.60;99.90
26342;DHT22;14054;50.108;8.640;2023-02-01T12:44:03;7.70;99.90
26342;DHT22;14054;50.108;8.640;2023-02-01T12:46:40;7.70;99.90
26342;DHT22;14054;50.108;8.640;2023-02-01T12:51:46;7.70;99.90
26342;DHT22;14054;50.108;8.640;2023-02-01T12:56:57;7.60;99.90
26342;DHT22;14054;50.108;8.640;2023-02-01T12:59:32;7.60;99.90
26342;DHT22;14054;50.108;8.640;2023-02-01T13:05:04;7.60;99.90
26342;DHT22;14054;50.108;8.640;2023-02-01T13:07:50;7.60;99.90
26342;DHT22;14054;50.108;8.640;2023-02-01T13:10:18;7.80;99.90
26342;DHT22;14054;50.108;8.640;2023-02-01T13:12:54;7.70;99.90
26342;DHT22;14054;50.108;8.640;2023-02-01T13:15:26;7.60;99.90
26342;DHT22;14054;50.108;8.640;2023-02-01T13:17:55;7.60;99.90
26342;DHT22;14054;50.108;8.640;2023-02-01T13:23:25;7.70;99.90
26342;DHT22;14054;50.108;8.640;2023-02-01T13:25:52;7.80;99.90
26342;DHT22;14054;50.108;8.640;2023-02-01T13:37:39;7.80;99.90
26342;DHT22;14054;50.108;8.640;2023-02-01T13:40:18;7.80;99.90
26342;DHT22;14054;50.108;8.640;2023-02-01T13:42:51;7.80;99.90
26342;DHT22;14054;50.108;8.640;2023-02-01T13:45:22;7.80;99.90
26342;DHT22;14054;50.108;8.640;2023-02-01T13:47:51;8.00;99.90
26342;DHT22;14054;50.108;8.640;2023-02-01T13:50:36;8.00;99.90
26342;DHT22;14054;50.108;8.640;2023-02-01T13:55:38;8.10;99.90
26342;DHT22;14054;50.108;8.640;2023-02-01T13:58:34;8.20;99.90
26342;DHT22;14054;50.108;8.640;2023-02-01T14:04:02;8.10;99.90
26342;DHT22;14054;50.108;8.640;2023-02-01T14:09:15;7.90;99.90
26342;DHT22;14054;50.108;8.640;2023-02-01T14:11:52;8.00;99.90
26342;DHT22;14054;50.108;8.640;2023-02-01T14:21:55;8.20;99.90
26342;DHT22;14054;50.108;8.640;2023-02-01T14:24:34;8.40;99.90
26342;DHT22;14054;50.108;8.640;2023-02-01T14:29:40;9.30;99.90
26342;DHT22;14054;50.108;8.640;2023-02-01T14:35:00;9.60;99.90
26342;DHT22;14054;50.108;8.640;2023-02-01T14:37:30;9.60;99.90
26342;DHT22;14054;50.108;8.640;2023-02-01T14:42:28;9.20;99.90
26342;DHT22;14054;50.108;8.640;2023-02-01T14:45:46;9.20;99.90
26342;DHT22;14054;50.108;8.640;2023-02-01T14:47:42;9.00;99.90
26342;DHT22;14054;50.108;8.640;2023-02-01T14:58:55;9.00;99.90
26342;DHT22;14054;50.108;8.640;2023-02-01T15:04:12;9.10;99.90
26342;DHT22;14054;50.108;8.640;2023-02-01T15:14:19;8.90;99.90
26342;DHT22;14054;50.108;8.640;2023-02-01T15:16:44;8.80;99.90
26342;DHT22;14054;50.108;8.640;2023-02-01T15:19:15;8.70;99.90
26342;DHT22;14054;50.108;8.640;2023-02-01T15:21:46;8.60;99.90
26342;DHT22;14054;50.108;8.640;2023-02-01T15:24:14;8.50;99.90
26342;DHT22;14054;50.108;8.640;2023-02-01T15:26:40;8.40;99.90
26342;DHT22;14054;50.108;8.640;2023-02-01T15:29:12;8.40;99.90
26342;DHT22;14054;50.108;8.640;2023-02-01T15:31:45;8.30;99.90
26342;DHT22;14054;50.108;8.640;2023-02-01T15:34:12;8.30;99.90
26342;DHT22;14054;50.108;8.640;2023-02-01T15:36:38;8.30;99.90
26342;DHT22;14054;50.108;8.640;2023-02-01T15:39:23;8.30;99.90
26342;DHT22;14054;50.108;8.640;2023-02-01T15:41:59;8.20;99.90
26342;DHT22;14054;50.108;8.640;2023-02-01T15:44:41;8.20;99.90
26342;DHT22;14054;50.108;8.640;2023-02-01T15:47:14;8.20;99.90
26342;DHT22;14054;50.108;8.640;2023-02-01T15:49:42;8.20;99.90
26342;DHT22;14054;50.108;8.640;2023-02-01T15:54:50;8.20;99.90
26342;DHT22;14054;50.108;8.640;2023-02-01T15:57:23;8.20;99.90
26342;DHT22;14054;50.108;8.640;2023-02-01T15:59:56;8.10;99.90
26342;DHT22;14054;50.108;8.640;2023-02-01T16:02:28;8.00;99.90
26342;DHT22;14054;50.108;8.640;2023-02-01T16:04:54;8.00;99.90
26342;DHT22;14054;50.108;8.640;2023-02-01T16:07:29;8.00;99.90
26342;DHT22;14054;50.108;8.640;2023-02-01T16:10:00;7.90;99.90
26342;DHT22;14054;50.108;8.640;2023-02-01T16:12:46;7.90;99.90
26342;DHT22;14054;50.108;8.640;2023-02-01T16:15:12;7.90;99.90
26342;DHT22;14054;50.108;8.640;2023-02-01T16:17:38;7.90;99.90
26342;DHT22;14054;50.108;8.640;2023-02-01T16:20:04;7.90;99.90
26342;DHT22;14054;50.108;8.640;2023-02-01T16:22:29;7.80;99.90
26342;DHT22;14054;50.108;8.640;2023-02-01T16:24:57;7.80;99.90
26342;DHT22;14054;50.108;8.640;2023-02-01T16:27:22;7.80;99.90
26342;DHT22;14054;50.108;8.640;2023-02-01T16:29:48;7.80;99.90
26342;DHT22;14054;50.108;8.640;2023-02-01T16:32:18;7.80;99.90
26342;DHT22;14054;50.108;8.640;2023-02-01T16:34:45;7.80;99.90
26342;DHT22;14054;50.108;8.640;2023-02-01T16:37:13;7.70;99.90
26342;DHT22;14054;50.108;8.640;2023-02-01T16:39:39;7.70;99.90
26342;DHT22;14054;50.108;8.640;2023-02-01T16:42:15;7.60;99.90
26342;DHT22;14054;50.108;8.640;2023-02-01T16:44:42;7.70;99.90
26342;DHT22;14054;50.108;8.640;2023-02-01T16:47:19;7.70;99.90
26342;DHT22;14054;50.108;8.640;2023-02-01T16:49:46;7.60;99.90
26342;DHT22;14054;50.108;8.640;2023-02-01T16:52:16;7.60;99.90
26342;DHT22;14054;50.108;8.640;2023-02-01T16:54:42;7.60;99.90
26342;DHT22;14054;50.108;8.640;2023-02-01T16:57:15;7.50;99.90
26342;DHT22;14054;50.108;8.640;2023-02-01T16:59:42;7.50;99.90
26342;DHT22;14054;50.108;8.640;2023-02-01T17:02:13;7.50;99.90
26342;DHT22;14054;50.108;8.640;2023-02-01T17:04:39;7.50;99.90
26342;DHT22;14054;50.108;8.640;2023-02-01T17:07:04;7.50;99.90
26342;DHT22;14054;50.108;8.640;2023-02-01T17:09:37;7.50;99.90
26342;DHT22;14054;50.108;8.640;2023-02-01T17:12:04;7.50;99.90
26342;DHT22;14054;50.108;8.640;2023-02-01T17:14:32;7.50;99.90
26342;DHT22;14054;50.108;8.640;2023-02-01T17:17:00;7.50;99.90
26342;DHT22;14054;50.108;8.640;2023-02-01T17:19:25;7.40;99.90
26342;DHT22;14054;50.108;8.640;2023-02-01T17:21:55;7.50;99.90
26342;DHT22;14054;50.108;8.640;2023-02-01T17:24:25;7.40;99.90
26342;DHT22;14054;50.108;8.640;2023-02-01T17:26:51;7.40;99.90
26342;DHT22;14054;50.108;8.640;2023-02-01T17:29:17;7.40;99.90
26342;DHT22;14054;50.108;8.640;2023-02-01T17:31:46;7.40;99.90
26342;DHT22;14054;50.108;8.640;2023-02-01T17:34:13;7.40;99.90
26342;DHT22;14054;50.108;8.640;2023-02-01T17:36:40;7.30;99.90
26342;DHT22;14054;50.108;8.640;2023-02-01T17:39:07;7.30;99.90
26342;DHT22;14054;50.108;8.640;2023-02-01T17:41:32;7.30;99.90
26342;DHT22;14054;50.108;8.640;2023-02-01T17:43:58;7.20;99.90
26342;DHT22;14054;50.108;8.640;2023-02-01T17:46:23;7.30;99.90
26342;DHT22;14054;50.108;8.640;2023-02-01T17:48:53;7.20;99.90
26342;DHT22;14054;50.108;8.640;2023-02-01T17:51:21;7.20;99.90
26342;DHT22;14054;50.108;8.640;2023-02-01T17:53:48;7.20;99.90
26342;DHT22;14054;50.108;8.640;2023-02-01T17:56:17;7.10;99.90
26342;DHT22;14054;50.108;8.640;2023-02-01T17:58:43;7.20;99.90
26342;DHT22;14054;50.108;8.640;2023-02-01T18:01:15;7.20;99.90
26342;DHT22;14054;50.108;8.640;2023-02-01T18:03:41;7.20;99.90
26342;DHT22;14054;50.108;8.640;2023-02-01T18:06:13;7.30;99.90
26342;DHT22;14054;50.108;8.640;2023-02-01T18:08:39;7.20;99.90
26342;DHT22;14054;50.108;8.640;2023-02-01T18:11:08;7.20;99.90
26342;DHT22;14054;50.108;8.640;2023-02-01T18:13:34;7.20;99.90
26342;DHT22;14054;50.108;8.640;2023-02-01T18:15:59;7.20;99.90
26342;DHT22;14054;50.108;8.640;2023-02-01T18:18:26;7.20;99.90